sensor_id;sensor_type;location;lat;lon;timestamp;pressure;altitude;pressure_sealevel;temperature;humidity
84639;BME280;74869;51.924;5.712;2024-03-07T00:02:10;102607.22;;;3.12;86.43
84639;BME280;74869;51.924;5.712;2024-03-07T00:04:35;102647.81;;;3.28;85.81
84639;BME280;74869;51.924;5.712;2024-03-07T00:07:04;102652.38;;;3.34;86.30
84639;BME280;74869;51.924;5.712;2024-03-07T00:09:32;102657.06;;;3.32;86.49
84639;BME280;74869;51.924;5.712;2024-03-07T00:11:57;102637.41;;;3.11;86.00
84639;BME280;74869;51.924;5.712;2024-03-07T00:14:23;102627.16;;;3.08;85.66
84639;BME280;74869;51.924;5.712;2024-03-07T00:16:53;102641.06;;;3.10;85.92
84639;BME280;74869;51.924;5.712;2024-03-07T00:19:18;102650.78;;;3.18;86.02
84639;BME280;74869;51.924;5.712;2024-03-07T00:21:43;102597.94;;;2.87;86.04
84639;BME280;74869;51.924;5.712;2024-03-07T00:24:09;102654.16;;;3.12;86.07
84639;BME280;74869;51.924;5.712;2024-03-07T00:26:34;102658.66;;;3.11;86.58
84639;BME280;74869;51.924;5.712;2024-03-07T00:28:59;102635.16;;;2.94;86.05
84639;BME280;74869;51.924;5.712;2024-03-07T00:31:25;102649.88;;;2.96;86.12
84639;BME280;74869;51.924;5.712;2024-03-07T00:33:51;102644.38;;;2.83;86.38
84639;BME280;74869;51.924;5.712;2024-03-07T00:36:17;102667.34;;;2.91;86.05
84639;BME280;74869;51.924;5.712;2024-03-07T00:38:42;102669.72;;;2.86;85.98
84639;BME280;74869;51.924;5.712;2024-03-07T00:41:07;102652.81;;;2.72;86.18
84639;BME280;74869;51.924;5.712;2024-03-07T00:43:33;102654.19;;;2.68;86.56
84639;BME280;74869;51.924;5.712;2024-03-07T00:45:58;102652.28;;;2.62;86.47
84639;BME280;74869;51.924;5.712;2024-03-07T00:48:23;102656.84;;;2.68;86.19
84639;BME280;74869;51.924;5.712;2024-03-07T00:50:50;102635.69;;;2.45;86.56
84639;BME280;74869;51.924;5.712;2024-03-07T00:53:15;102648.03;;;2.53;86.84
84639;BME280;74869;51.924;5.712;2024-03-07T00:55:41;102644.28;;;2.47;86.71
84639;BME280;74869;51.924;5.712;2024-03-07T00:58:06;102628.19;;;2.34;85.95
84639;BME280;74869;51.924;5.712;2024-03-07T01:00:31;102636.78;;;2.36;86.46
84639;BME280;74869;51.924;5.712;2024-03-07T01:02:57;102633.94;;;2.37;86.62
84639;BME280;74869;51.924;5.712;2024-03-07T01:05:22;102648.22;;;2.36;86.50
84639;BME280;74869;51.924;5.712;2024-03-07T01:07:48;102629.47;;;2.23;86.29
84639;BME280;74869;51.924;5.712;2024-03-07T01:10:16;102649.63;;;2.24;86.69
84639;BME280;74869;51.924;5.712;2024-03-07T01:12:42;102669.13;;;2.31;86.15
84639;BME280;74869;51.924;5.712;2024-03-07T01:15:08;102644.78;;;2.13;86.56
84639;BME280;74869;51.924;5.712;2024-03-07T01:17:35;102634.22;;;2.05;87.00
84639;BME280;74869;51.924;5.712;2024-03-07T01:20:00;102653.09;;;2.10;86.27
84639;BME280;74869;51.924;5.712;2024-03-07T01:22:26;102639.91;;;2.02;86.74
84639;BME280;74869;51.924;5.712;2024-03-07T01:24:52;102663.31;;;2.13;86.90
84639;BME280;74869;51.924;5.712;2024-03-07T01:27:17;102623.53;;;1.98;87.05
84639;BME280;74869;51.924;5.712;2024-03-07T01:29:43;102607.06;;;1.88;86.49
84639;BME280;74869;51.924;5.712;2024-03-07T01:32:10;102645.13;;;2.10;86.84
84639;BME280;74869;51.924;5.712;2024-03-07T01:34:35;102604.03;;;1.77;86.92
84639;BME280;74869;51.924;5.712;2024-03-07T01:37:00;102639.91;;;2.02;86.74
84639;BME280;74869;51.924;5.712;2024-03-07T01:39:26;102626.38;;;1.97;86.61
84639;BME280;74869;51.924;5.712;2024-03-07T01:41:51;102638.53;;;2.06;86.37
84639;BME280;74869;51.924;5.712;2024-03-07T01:44:17;102627.53;;;1.94;86.46
84639;BME280;74869;51.924;5.712;2024-03-07T01:46:42;102650.13;;;2.05;86.63
84639;BME280;74869;51.924;5.712;2024-03-07T01:49:08;102636.25;;;2.03;87.10
84639;BME280;74869;51.924;5.712;2024-03-07T01:51:36;102607.91;;;1.89;87.09
84639;BME280;74869;51.924;5.712;2024-03-07T01:54:02;102576.50;;;1.63;87.10
84639;BME280;74869;51.924;5.712;2024-03-07T01:56:28;102635.66;;;1.93;86.85
84639;BME280;74869;51.924;5.712;2024-03-07T01:58:55;102626.72;;;1.94;86.72
84639;BME280;74869;51.924;5.712;2024-03-07T02:01:22;102598.72;;;1.77;87.20
84639;BME280;74869;51.924;5.712;2024-03-07T02:03:47;102634.31;;;1.97;87.03
84639;BME280;74869;51.924;5.712;2024-03-07T02:06:13;102637.81;;;1.97;87.86
84639;BME280;74869;51.924;5.712;2024-03-07T02:08:39;102627.00;;;1.99;87.06
84639;BME280;74869;51.924;5.712;2024-03-07T02:11:04;102607.66;;;1.76;87.22
84639;BME280;74869;51.924;5.712;2024-03-07T02:13:30;102632.25;;;2.07;87.68
84639;BME280;74869;51.924;5.712;2024-03-07T02:15:57;102575.06;;;1.75;87.27
84639;BME280;74869;51.924;5.712;2024-03-07T02:18:22;102583.19;;;1.96;87.16
84639;BME280;74869;51.924;5.712;2024-03-07T02:20:49;102614.06;;;2.19;87.40
84639;BME280;74869;51.924;5.712;2024-03-07T02:23:14;102553.63;;;1.70;87.65
84639;BME280;74869;51.924;5.712;2024-03-07T02:25:40;102576.41;;;1.94;87.22
84639;BME280;74869;51.924;5.712;2024-03-07T02:28:06;102611.97;;;2.14;87.72
84639;BME280;74869;51.924;5.712;2024-03-07T02:30:31;102612.25;;;2.19;87.82
84639;BME280;74869;51.924;5.712;2024-03-07T02:32:58;102598.81;;;2.06;87.43
84639;BME280;74869;51.924;5.712;2024-03-07T02:35:25;102617.66;;;2.11;87.72
84639;BME280;74869;51.924;5.712;2024-03-07T02:37:50;102637.75;;;2.20;88.05
84639;BME280;74869;51.924;5.712;2024-03-07T02:40:16;102628.69;;;2.15;88.27
84639;BME280;74869;51.924;5.712;2024-03-07T02:42:42;102613.59;;;2.00;88.32
84639;BME280;74869;51.924;5.712;2024-03-07T02:45:07;102548.50;;;1.69;88.33
84639;BME280;74869;51.924;5.712;2024-03-07T02:47:33;102586.72;;;1.89;88.31
84639;BME280;74869;51.924;5.712;2024-03-07T02:49:58;102577.19;;;1.80;88.14
84639;BME280;74869;51.924;5.712;2024-03-07T02:52:24;102612.59;;;2.01;88.34
84639;BME280;74869;51.924;5.712;2024-03-07T02:54:49;102578.66;;;1.82;88.27
84639;BME280;74869;51.924;5.712;2024-03-07T02:57:15;102607.06;;;1.88;88.25
84639;BME280;74869;51.924;5.712;2024-03-07T02:59:40;102593.19;;;1.86;88.69
84639;BME280;74869;51.924;5.712;2024-03-07T03:02:07;102596.38;;;1.82;88.63
84639;BME280;74869;51.924;5.712;2024-03-07T03:04:32;102596.91;;;1.77;88.74
84639;BME280;74869;51.924;5.712;2024-03-07T03:06:58;102571.75;;;1.58;88.20
84639;BME280;74869;51.924;5.712;2024-03-07T03:09:23;102603.03;;;1.78;88.32
84639;BME280;74869;51.924;5.712;2024-03-07T03:11:49;102570.03;;;1.66;88.76
84639;BME280;74869;51.924;5.712;2024-03-07T03:14:14;102595.38;;;1.83;88.49
84639;BME280;74869;51.924;5.712;2024-03-07T03:16:43;102586.88;;;1.73;88.68
84639;BME280;74869;51.924;5.712;2024-03-07T03:19:09;102582.84;;;1.77;88.90
84639;BME280;74869;51.924;5.712;2024-03-07T03:21:34;102551.09;;;1.54;88.16
84639;BME280;74869;51.924;5.712;2024-03-07T03:24:00;102595.09;;;1.78;88.68
84639;BME280;74869;51.924;5.712;2024-03-07T03:26:27;102576.63;;;1.70;88.34
84639;BME280;74869;51.924;5.712;2024-03-07T03:28:52;102573.50;;;1.66;88.80
84639;BME280;74869;51.924;5.712;2024-03-07T03:31:18;102520.28;;;1.38;88.21
84639;BME280;74869;51.924;5.712;2024-03-07T03:33:45;102571.66;;;1.67;88.36
84639;BME280;74869;51.924;5.712;2024-03-07T03:36:10;102584.38;;;1.71;88.67
84639;BME280;74869;51.924;5.712;2024-03-07T03:38:36;102575.63;;;1.71;88.67
84639;BME280;74869;51.924;5.712;2024-03-07T03:41:01;102570.97;;;1.73;88.46
84639;BME280;74869;51.924;5.712;2024-03-07T03:43:27;102573.44;;;1.74;88.95
84639;BME280;74869;51.924;5.712;2024-03-07T03:45:52;102569.78;;;1.75;88.71
84639;BME280;74869;51.924;5.712;2024-03-07T03:48:17;102564.19;;;1.70;89.02
84639;BME280;74869;51.924;5.712;2024-03-07T03:50:43;102540.75;;;1.44;88.37
84639;BME280;74869;51.924;5.712;2024-03-07T03:53:08;102566.75;;;1.64;88.76
84639;BME280;74869;51.924;5.712;2024-03-07T03:55:33;102579.91;;;1.72;88.54
84639;BME280;74869;51.924;5.712;2024-03-07T03:57:59;102588.03;;;1.70;89.07
84639;BME280;74869;51.924;5.712;2024-03-07T04:00:25;102579.44;;;1.68;88.33
84639;BME280;74869;51.924;5.712;2024-03-07T04:02:50;102564.50;;;1.52;88.92
84639;BME280;74869;51.924;5.712;2024-03-07T04:05:17;102561.22;;;1.50;88.52
84639;BME280;74869;51.924;5.712;2024-03-07T04:07:44;102540.28;;;1.41;89.05
84639;BME280;74869;51.924;5.712;2024-03-07T04:10:11;102577.31;;;1.64;89.21
84639;BME280;74869;51.924;5.712;2024-03-07T04:12:39;102569.09;;;1.58;89.02
84639;BME280;74869;51.924;5.712;2024-03-07T04:15:06;102565.69;;;1.50;88.96
84639;BME280;74869;51.924;5.712;2024-03-07T04:17:33;102560.75;;;1.47;89.37
84639;BME280;74869;51.924;5.712;2024-03-07T04:19:59;102569.44;;;1.55;88.89
84639;BME280;74869;51.924;5.712;2024-03-07T04:22:25;102582.06;;;1.53;89.21
84639;BME280;74869;51.924;5.712;2024-03-07T04:24:51;102536.50;;;1.35;88.97
84639;BME280;74869;51.924;5.712;2024-03-07T04:27:19;102563.19;;;1.48;88.88
84639;BME280;74869;51.924;5.712;2024-03-07T04:29:45;102560.56;;;1.48;89.03
84639;BME280;74869;51.924;5.712;2024-03-07T04:32:13;102568.50;;;1.48;89.30
84639;BME280;74869;51.924;5.712;2024-03-07T04:34:38;102565.84;;;1.48;89.31
84639;BME280;74869;51.924;5.712;2024-03-07T04:37:04;102575.72;;;1.54;89.11
84639;BME280;74869;51.924;5.712;2024-03-07T04:39:30;102543.56;;;1.43;89.55
84639;BME280;74869;51.924;5.712;2024-03-07T04:42:02;102555.34;;;1.40;89.39
84639;BME280;74869;51.924;5.712;2024-03-07T04:44:29;102551.78;;;1.48;88.91
84639;BME280;74869;51.924;5.712;2024-03-07T04:46:54;102569.94;;;1.59;89.33
84639;BME280;74869;51.924;5.712;2024-03-07T04:49:23;102562.59;;;1.61;89.24
84639;BME280;74869;51.924;5.712;2024-03-07T04:51:53;102526.03;;;1.42;88.82
84639;BME280;74869;51.924;5.712;2024-03-07T04:54:19;102569.66;;;1.69;89.02
84639;BME280;74869;51.924;5.712;2024-03-07T04:56:48;102564.38;;;1.69;89.36
84639;BME280;74869;51.924;5.712;2024-03-07T04:59:14;102560.72;;;1.70;89.75
84639;BME280;74869;51.924;5.712;2024-03-07T05:01:39;102554.16;;;1.66;89.72
84639;BME280;74869;51.924;5.712;2024-03-07T05:04:06;102561.00;;;1.75;89.65
84639;BME280;74869;51.924;5.712;2024-03-07T05:06:31;102555.44;;;1.70;89.73
84639;BME280;74869;51.924;5.712;2024-03-07T05:09:00;102548.88;;;1.66;89.48
84639;BME280;74869;51.924;5.712;2024-03-07T05:11:32;102552.13;;;1.68;89.71
84639;BME280;74869;51.924;5.712;2024-03-07T05:13:59;102539.97;;;1.58;89.60
84639;BME280;74869;51.924;5.712;2024-03-07T05:16:30;102570.31;;;1.71;89.60
84639;BME280;74869;51.924;5.712;2024-03-07T05:18:56;102572.31;;;1.69;89.76
84639;BME280;74869;51.924;5.712;2024-03-07T05:21:25;102568.38;;;1.65;89.75
84639;BME280;74869;51.924;5.712;2024-03-07T05:24:07;102568.09;;;1.59;89.67
84639;BME280;74869;51.924;5.712;2024-03-07T05:26:34;102558.56;;;1.50;90.19
84639;BME280;74869;51.924;5.712;2024-03-07T05:29:03;102567.66;;;1.48;89.98
84639;BME280;74869;51.924;5.712;2024-03-07T05:31:38;102572.06;;;1.41;89.64
84639;BME280;74869;51.924;5.712;2024-03-07T05:34:09;102552.50;;;1.19;89.81
84639;BME280;74869;51.924;5.712;2024-03-07T05:36:35;102553.88;;;1.15;90.04
84639;BME280;74869;51.924;5.712;2024-03-07T05:39:01;102580.72;;;1.27;90.20
84639;BME280;74869;51.924;5.712;2024-03-07T05:41:35;102546.00;;;0.99;89.80
84639;BME280;74869;51.924;5.712;2024-03-07T05:44:00;102521.44;;;0.90;89.67
84639;BME280;74869;51.924;5.712;2024-03-07T05:46:26;102572.38;;;1.15;90.25
84639;BME280;74869;51.924;5.712;2024-03-07T05:48:51;102548.34;;;0.94;90.00
84639;BME280;74869;51.924;5.712;2024-03-07T05:51:23;102557.88;;;1.03;90.23
84639;BME280;74869;51.924;5.712;2024-03-07T05:53:49;102572.25;;;1.08;90.24
84639;BME280;74869;51.924;5.712;2024-03-07T05:56:14;102563.81;;;1.05;89.85
84639;BME280;74869;51.924;5.712;2024-03-07T05:58:40;102539.66;;;0.77;89.77
84639;BME280;74869;51.924;5.712;2024-03-07T06:01:05;102574.28;;;0.98;89.71
84639;BME280;74869;51.924;5.712;2024-03-07T06:03:30;102527.00;;;0.64;90.08
84639;BME280;74869;51.924;5.712;2024-03-07T06:05:56;102575.13;;;0.91;89.99
84639;BME280;74869;51.924;5.712;2024-03-07T06:08:21;102548.41;;;0.77;90.50
84639;BME280;74869;51.924;5.712;2024-03-07T06:10:47;102579.72;;;0.97;89.93
84639;BME280;74869;51.924;5.712;2024-03-07T06:13:14;102553.03;;;0.84;90.36
84639;BME280;74869;51.924;5.712;2024-03-07T06:15:43;102559.78;;;0.86;89.83
84639;BME280;74869;51.924;5.712;2024-03-07T06:18:08;102566.38;;;0.90;89.86
84639;BME280;74869;51.924;5.712;2024-03-07T06:20:34;102556.00;;;0.89;89.79
84639;BME280;74869;51.924;5.712;2024-03-07T06:23:01;102566.50;;;0.97;89.76
84639;BME280;74869;51.924;5.712;2024-03-07T06:25:33;102564.91;;;0.88;89.79
84639;BME280;74869;51.924;5.712;2024-03-07T06:28:17;102534.91;;;0.72;89.68
84639;BME280;74869;51.924;5.712;2024-03-07T06:30:44;102527.97;;;0.71;89.83
84639;BME280;74869;51.924;5.712;2024-03-07T06:33:13;102572.44;;;0.99;89.57
84639;BME280;74869;51.924;5.712;2024-03-07T06:35:42;102574.44;;;0.97;89.78
84639;BME280;74869;51.924;5.712;2024-03-07T06:38:08;102574.41;;;1.05;89.78
84639;BME280;74869;51.924;5.712;2024-03-07T06:40:35;102571.78;;;0.97;89.83
84639;BME280;74869;51.924;5.712;2024-03-07T06:43:01;102561.22;;;0.97;89.67
84639;BME280;74869;51.924;5.712;2024-03-07T06:45:34;102573.69;;;1.11;89.80
84639;BME280;74869;51.924;5.712;2024-03-07T06:48:00;102557.66;;;1.12;89.63
84639;BME280;74869;51.924;5.712;2024-03-07T06:50:26;102560.97;;;1.14;89.49
84639;BME280;74869;51.924;5.712;2024-03-07T06:52:54;102568.63;;;1.32;89.90
84639;BME280;74869;51.924;5.712;2024-03-07T06:55:19;102571.34;;;1.47;89.52
84639;BME280;74869;51.924;5.712;2024-03-07T06:57:45;102554.66;;;1.61;89.71
84639;BME280;74869;51.924;5.712;2024-03-07T07:00:14;102534.59;;;1.67;89.38
84639;BME280;74869;51.924;5.712;2024-03-07T07:02:46;102553.03;;;1.97;89.66
84639;BME280;74869;51.924;5.712;2024-03-07T07:05:11;102539.59;;;1.99;90.05
84639;BME280;74869;51.924;5.712;2024-03-07T07:07:38;102552.25;;;2.26;89.16
84639;BME280;74869;51.924;5.712;2024-03-07T07:10:04;102546.78;;;2.42;89.20
84639;BME280;74869;51.924;5.712;2024-03-07T07:12:32;102549.59;;;2.56;89.94
84639;BME280;74869;51.924;5.712;2024-03-07T07:14:58;102546.28;;;2.68;89.77
84639;BME280;74869;51.924;5.712;2024-03-07T07:17:23;102540.13;;;2.82;89.67
84639;BME280;74869;51.924;5.712;2024-03-07T07:19:50;102512.34;;;2.78;89.83
84639;BME280;74869;51.924;5.712;2024-03-07T07:22:17;102513.97;;;2.94;89.02
84639;BME280;74869;51.924;5.712;2024-03-07T07:24:43;102533.75;;;3.13;89.34
84639;BME280;74869;51.924;5.712;2024-03-07T07:27:09;102534.97;;;3.32;89.02
84639;BME280;74869;51.924;5.712;2024-03-07T07:29:34;102544.50;;;3.47;88.71
84639;BME280;74869;51.924;5.712;2024-03-07T07:31:59;102538.22;;;3.55;88.91
84639;BME280;74869;51.924;5.712;2024-03-07T07:34:25;102497.28;;;3.43;88.62
84639;BME280;74869;51.924;5.712;2024-03-07T07:36:50;102540.94;;;3.83;88.73
84639;BME280;74869;51.924;5.712;2024-03-07T07:39:16;102528.69;;;3.88;88.56
84639;BME280;74869;51.924;5.712;2024-03-07T07:41:42;102526.50;;;3.98;88.28
84639;BME280;74869;51.924;5.712;2024-03-07T07:44:08;102530.28;;;4.11;87.67
84639;BME280;74869;51.924;5.712;2024-03-07T07:46:33;102488.72;;;3.96;87.98
84639;BME280;74869;51.924;5.712;2024-03-07T07:49:00;102537.63;;;4.43;87.41
84639;BME280;74869;51.924;5.712;2024-03-07T07:51:25;102536.03;;;4.55;86.59
84639;BME280;74869;51.924;5.712;2024-03-07T07:53:52;102545.09;;;4.67;86.77
84639;BME280;74869;51.924;5.712;2024-03-07T07:56:19;102554.19;;;4.79;85.90
84639;BME280;74869;51.924;5.712;2024-03-07T07:58:45;102520.63;;;4.85;85.35
84639;BME280;74869;51.924;5.712;2024-03-07T08:01:11;102533.16;;;4.98;85.81
84639;BME280;74869;51.924;5.712;2024-03-07T08:03:36;102536.66;;;5.05;85.02
84639;BME280;74869;51.924;5.712;2024-03-07T08:06:03;102521.53;;;5.12;84.33
84639;BME280;74869;51.924;5.712;2024-03-07T08:08:28;102536.31;;;5.34;84.13
84639;BME280;74869;51.924;5.712;2024-03-07T08:10:54;102526.03;;;5.38;83.95
84639;BME280;74869;51.924;5.712;2024-03-07T08:13:19;102544.50;;;5.52;83.30
84639;BME280;74869;51.924;5.712;2024-03-07T08:15:45;102534.69;;;5.59;82.94
84639;BME280;74869;51.924;5.712;2024-03-07T08:18:10;102498.19;;;5.47;82.14
84639;BME280;74869;51.924;5.712;2024-03-07T08:20:35;102503.13;;;5.56;81.58
84639;BME280;74869;51.924;5.712;2024-03-07T08:23:01;102531.00;;;5.87;81.72
84639;BME280;74869;51.924;5.712;2024-03-07T08:25:28;102528.72;;;5.84;80.67
84639;BME280;74869;51.924;5.712;2024-03-07T08:27:55;102511.53;;;5.93;80.42
84639;BME280;74869;51.924;5.712;2024-03-07T08:30:22;102550.25;;;6.15;80.16
84639;BME280;74869;51.924;5.712;2024-03-07T08:32:55;102537.16;;;6.20;79.25
84639;BME280;74869;51.924;5.712;2024-03-07T08:35:21;102528.91;;;6.28;79.28
84639;BME280;74869;51.924;5.712;2024-03-07T08:37:49;102537.06;;;6.47;78.87
84639;BME280;74869;51.924;5.712;2024-03-07T08:40:18;102532.50;;;6.54;78.29
84639;BME280;74869;51.924;5.712;2024-03-07T08:42:47;102534.16;;;6.55;77.57
84639;BME280;74869;51.924;5.712;2024-03-07T08:45:20;102541.97;;;6.56;77.26
84639;BME280;74869;51.924;5.712;2024-03-07T08:47:47;102510.34;;;6.53;76.88
84639;BME280;74869;51.924;5.712;2024-03-07T08:50:13;102537.81;;;6.67;76.98
84639;BME280;74869;51.924;5.712;2024-03-07T08:52:40;102475.53;;;6.35;75.70
84639;BME280;74869;51.924;5.712;2024-03-07T08:55:06;102520.91;;;6.79;76.28
84639;BME280;74869;51.924;5.712;2024-03-07T08:57:35;102529.50;;;6.88;76.00
84639;BME280;74869;51.924;5.712;2024-03-07T09:00:02;102523.44;;;7.06;76.05
84639;BME280;74869;51.924;5.712;2024-03-07T09:02:35;102434.75;;;6.66;75.04
84639;BME280;74869;51.924;5.712;2024-03-07T09:05:04;102468.25;;;6.93;75.43
84639;BME280;74869;51.924;5.712;2024-03-07T09:07:30;102523.50;;;7.31;75.16
84639;BME280;74869;51.924;5.712;2024-03-07T09:09:56;102520.66;;;7.25;74.75
84639;BME280;74869;51.924;5.712;2024-03-07T09:12:22;102503.75;;;7.32;74.79
84639;BME280;74869;51.924;5.712;2024-03-07T09:14:47;102486.84;;;7.38;74.07
84639;BME280;74869;51.924;5.712;2024-03-07T09:17:13;102501.09;;;7.56;74.44
84639;BME280;74869;51.924;5.712;2024-03-07T09:19:38;102496.31;;;7.65;73.89
84639;BME280;74869;51.924;5.712;2024-03-07T09:22:03;102500.06;;;7.82;73.68
84639;BME280;74869;51.924;5.712;2024-03-07T09:24:30;102505.88;;;7.97;73.44
84639;BME280;74869;51.924;5.712;2024-03-07T09:26:56;102458.16;;;7.76;73.17
84639;BME280;74869;51.924;5.712;2024-03-07T09:29:22;102495.34;;;8.02;72.46
84639;BME280;74869;51.924;5.712;2024-03-07T09:31:51;102481.53;;;8.05;72.26
84639;BME280;74869;51.924;5.712;2024-03-07T09:34:19;102506.19;;;8.26;71.85
84639;BME280;74869;51.924;5.712;2024-03-07T09:36:46;102503.84;;;8.36;70.94
84639;BME280;74869;51.924;5.712;2024-03-07T09:39:12;102503.09;;;8.47;71.21
84639;BME280;74869;51.924;5.712;2024-03-07T09:41:40;102483.94;;;8.50;70.75
84639;BME280;74869;51.924;5.712;2024-03-07T09:44:05;102497.59;;;8.60;70.14
84639;BME280;74869;51.924;5.712;2024-03-07T09:46:34;102499.50;;;8.71;69.57
84639;BME280;74869;51.924;5.712;2024-03-07T09:49:00;102468.88;;;8.67;70.00
84639;BME280;74869;51.924;5.712;2024-03-07T09:51:27;102489.81;;;8.89;68.82
84639;BME280;74869;51.924;5.712;2024-03-07T09:53:53;102469.31;;;8.94;69.27
84639;BME280;74869;51.924;5.712;2024-03-07T09:56:23;102489.56;;;9.32;69.22
84639;BME280;74869;51.924;5.712;2024-03-07T09:58:50;102443.78;;;9.45;68.86
84639;BME280;74869;51.924;5.712;2024-03-07T10:01:20;102436.19;;;9.42;67.50
84639;BME280;74869;51.924;5.712;2024-03-07T10:03:47;102469.06;;;9.60;67.46
84639;BME280;74869;51.924;5.712;2024-03-07T10:06:13;102438.44;;;9.56;67.49
84639;BME280;74869;51.924;5.712;2024-03-07T10:08:40;102466.19;;;9.85;67.06
84639;BME280;74869;51.924;5.712;2024-03-07T10:11:07;102461.63;;;9.62;65.75
84639;BME280;74869;51.924;5.712;2024-03-07T10:13:34;102463.50;;;9.97;65.13
84639;BME280;74869;51.924;5.712;2024-03-07T10:16:01;102446.34;;;9.98;65.74
84639;BME280;74869;51.924;5.712;2024-03-07T10:18:26;102453.31;;;10.22;64.93
84639;BME280;74869;51.924;5.712;2024-03-07T10:20:56;102417.38;;;10.00;64.03
84639;BME280;74869;51.924;5.712;2024-03-07T10:23:22;102457.19;;;10.55;65.02
84639;BME280;74869;51.924;5.712;2024-03-07T10:25:49;102453.19;;;10.69;64.17
84639;BME280;74869;51.924;5.712;2024-03-07T10:28:18;102442.25;;;10.75;63.40
84639;BME280;74869;51.924;5.712;2024-03-07T10:30:43;102465.19;;;10.95;62.75
84639;BME280;74869;51.924;5.712;2024-03-07T10:33:15;102447.97;;;11.07;63.26
84639;BME280;74869;51.924;5.712;2024-03-07T10:35:40;102451.16;;;11.38;62.48
84639;BME280;74869;51.924;5.712;2024-03-07T10:38:06;102442.19;;;11.32;61.51
84639;BME280;74869;51.924;5.712;2024-03-07T10:40:32;102446.47;;;11.33;60.68
84639;BME280;74869;51.924;5.712;2024-03-07T10:42:58;102441.44;;;11.37;60.14
84639;BME280;74869;51.924;5.712;2024-03-07T10:45:29;102448.66;;;11.53;59.84
84639;BME280;74869;51.924;5.712;2024-03-07T10:47:58;102447.41;;;11.39;60.20
84639;BME280;74869;51.924;5.712;2024-03-07T10:50:43;102456.75;;;11.53;60.73
84639;BME280;74869;51.924;5.712;2024-03-07T10:53:26;102429.69;;;11.43;60.23
84639;BME280;74869;51.924;5.712;2024-03-07T10:59:14;102444.59;;;11.67;60.02
84639;BME280;74869;51.924;5.712;2024-03-07T11:04:50;102414.72;;;11.85;58.29
84639;BME280;74869;51.924;5.712;2024-03-07T11:07:18;102421.03;;;11.74;57.70
84639;BME280;74869;51.924;5.712;2024-03-07T11:09:47;102418.84;;;11.71;58.13
84639;BME280;74869;51.924;5.712;2024-03-07T11:12:14;102413.59;;;11.81;57.83
84639;BME280;74869;51.924;5.712;2024-03-07T11:14:41;102403.03;;;11.75;57.79
84639;BME280;74869;51.924;5.712;2024-03-07T11:17:08;102416.88;;;11.83;57.67
84639;BME280;74869;51.924;5.712;2024-03-07T11:19:38;102435.59;;;12.17;58.45
84639;BME280;74869;51.924;5.712;2024-03-07T11:22:04;102401.59;;;12.11;58.36
84639;BME280;74869;51.924;5.712;2024-03-07T11:24:40;102425.81;;;12.54;58.37
84639;BME280;74869;51.924;5.712;2024-03-07T11:27:11;102431.88;;;12.66;57.87
84639;BME280;74869;51.924;5.712;2024-03-07T11:32:12;102421.28;;;12.87;56.71
84639;BME280;74869;51.924;5.712;2024-03-07T11:34:45;102398.59;;;12.56;57.00
84639;BME280;74869;51.924;5.712;2024-03-07T11:37:36;102388.53;;;12.46;56.58
84639;BME280;74869;51.924;5.712;2024-03-07T11:40:06;102412.69;;;12.63;56.41
84639;BME280;74869;51.924;5.712;2024-03-07T11:42:33;102390.09;;;12.42;55.75
84639;BME280;74869;51.924;5.712;2024-03-07T11:45:01;102396.06;;;12.44;55.92
84639;BME280;74869;51.924;5.712;2024-03-07T11:47:37;102384.25;;;12.50;56.10
84639;BME280;74869;51.924;5.712;2024-03-07T11:50:07;102382.34;;;12.72;56.20
84639;BME280;74869;51.924;5.712;2024-03-07T11:52:38;102389.34;;;12.73;54.70
84639;BME280;74869;51.924;5.712;2024-03-07T11:55:08;102392.28;;;12.45;54.18
84639;BME280;74869;51.924;5.712;2024-03-07T11:57:33;102388.94;;;12.60;55.23
84639;BME280;74869;51.924;5.712;2024-03-07T11:59:59;102371.22;;;12.69;54.58
84639;BME280;74869;51.924;5.712;2024-03-07T12:02:37;102373.94;;;13.01;54.87
84639;BME280;74869;51.924;5.712;2024-03-07T12:05:04;102385.25;;;12.98;54.25
84639;BME280;74869;51.924;5.712;2024-03-07T12:07:31;102362.22;;;13.17;55.08
84639;BME280;74869;51.924;5.712;2024-03-07T12:09:56;102363.41;;;13.31;54.11
84639;BME280;74869;51.924;5.712;2024-03-07T12:12:22;102342.38;;;13.33;53.37
84639;BME280;74869;51.924;5.712;2024-03-07T12:14:48;102365.00;;;13.32;52.91
84639;BME280;74869;51.924;5.712;2024-03-07T12:17:14;102348.69;;;13.12;53.17
84639;BME280;74869;51.924;5.712;2024-03-07T12:19:42;102360.59;;;13.16;53.29
84639;BME280;74869;51.924;5.712;2024-03-07T12:22:11;102350.88;;;13.15;53.19
84639;BME280;74869;51.924;5.712;2024-03-07T12:24:40;102352.34;;;13.01;52.41
84639;BME280;74869;51.924;5.712;2024-03-07T12:27:10;102346.97;;;13.01;52.94
84639;BME280;74869;51.924;5.712;2024-03-07T12:29:37;102336.69;;;12.93;53.13
84639;BME280;74869;51.924;5.712;2024-03-07T12:32:08;102330.50;;;12.97;52.67
84639;BME280;74869;51.924;5.712;2024-03-07T12:34:36;102307.72;;;13.15;53.87
84639;BME280;74869;51.924;5.712;2024-03-07T12:37:05;102329.47;;;13.45;53.73
84639;BME280;74869;51.924;5.712;2024-03-07T12:39:32;102319.34;;;13.68;53.29
84639;BME280;74869;51.924;5.712;2024-03-07T12:42:03;102302.00;;;13.53;52.84
84639;BME280;74869;51.924;5.712;2024-03-07T12:44:41;102307.88;;;13.45;52.34
84639;BME280;74869;51.924;5.712;2024-03-07T12:47:16;102306.59;;;13.53;52.86
84639;BME280;74869;51.924;5.712;2024-03-07T12:49:43;102276.53;;;13.34;52.33
84639;BME280;74869;51.924;5.712;2024-03-07T12:52:09;102300.59;;;13.41;52.45
84639;BME280;74869;51.924;5.712;2024-03-07T12:54:37;102292.22;;;13.37;53.18
84639;BME280;74869;51.924;5.712;2024-03-07T12:57:06;102267.31;;;13.25;53.19
84639;BME280;74869;51.924;5.712;2024-03-07T12:59:34;102288.19;;;13.45;53.12
84639;BME280;74869;51.924;5.712;2024-03-07T13:01:59;102237.69;;;12.88;53.71
84639;BME280;74869;51.924;5.712;2024-03-07T13:04:25;102281.00;;;13.13;53.93
84639;BME280;74869;51.924;5.712;2024-03-07T13:06:52;102290.84;;;12.93;54.03